Terminal Aerodrome Forecast
Issued by NWS Corpus Christi, TX

Home | Current Version | Previous Version | Text Only | Print | Product List | Glossary On
Versions: 1 2 3 4 5 6 7 8 9 10 11 12 13 14 15 16 17 18 19 20 21
062
FTUS44 KCRP 252336
TAFCRP
TAF
KCRP 252336Z 2600/2624 11008KT P6SM FEW025
     FM260900 16009KT 6SM BR BKN008 BKN014
     FM261400 16014G19KT P6SM BKN014
     FM261700 16016G22KT P6SM BKN025
     FM261900 16024G30KT P6SM SCT030=

USA.gov is the U.S. government's official web portal to all federal, state and local government web resources and services.